createdAt,value
2017-10-15T00:01:33.589Z,100754.67
2017-10-15T00:04:01.190Z,100758.06
2017-10-15T00:06:28.656Z,100758.53
2017-10-15T00:08:56.128Z,100757.67
2017-10-15T00:11:23.584Z,100756.83
2017-10-15T00:13:51.072Z,100754.23
2017-10-15T00:16:18.589Z,100752.11
2017-10-15T00:18:46.055Z,100745.23
2017-10-15T00:21:13.536Z,100749.10
2017-10-15T00:23:41.030Z,100758.06
2017-10-15T00:26:08.507Z,100759.36
2017-10-15T00:28:36.665Z,100758.08
2017-10-15T00:31:04.165Z,100751.23
2017-10-15T00:33:31.645Z,100749.53
2017-10-15T00:35:59.113Z,100749.53
2017-10-15T00:38:26.605Z,100743.97
2017-10-15T00:40:54.057Z,100743.98
2017-10-15T00:43:21.509Z,100748.69
2017-10-15T00:45:49.003Z,100741.84
2017-10-15T00:48:16.470Z,100740.14
2017-10-15T00:50:43.969Z,100742.27
2017-10-15T00:53:11.475Z,100731.17
2017-10-15T00:55:38.999Z,100739.72
2017-10-15T01:00:40.332Z,100741.84
2017-10-15T01:03:07.807Z,100745.25
2017-10-15T01:05:35.310Z,100738.43
2017-10-15T01:08:02.807Z,100735.43
2017-10-15T01:10:30.285Z,100735.45
2017-10-15T01:12:57.758Z,100737.16
2017-10-15T01:15:25.265Z,100738.42
2017-10-15T01:17:52.734Z,100731.16
2017-10-15T01:20:20.198Z,100731.17
2017-10-15T01:22:47.711Z,100730.31
2017-10-15T01:25:15.196Z,100732.02
2017-10-15T01:27:42.676Z,100726.05
2017-10-15T01:30:10.167Z,100721.33
2017-10-15T01:32:37.653Z,100716.63
2017-10-15T01:35:05.122Z,100716.65
2017-10-15T01:37:32.621Z,100716.22
2017-10-15T01:40:00.090Z,100720.92
2017-10-15T01:42:27.629Z,100716.65
2017-10-15T01:44:55.141Z,100709.79
2017-10-15T01:47:22.608Z,100712.79
2017-10-15T01:49:50.079Z,100715.77
2017-10-15T01:52:17.570Z,100719.19
2017-10-15T01:54:45.029Z,100728.16
2017-10-15T01:57:12.508Z,100732.88
2017-10-15T01:59:40.058Z,100729.04
2017-10-15T02:02:07.522Z,100725.17
2017-10-15T02:04:34.983Z,100722.61
2017-10-15T02:07:02.480Z,100729.02
2017-10-15T02:09:29.969Z,100724.34
2017-10-15T02:11:57.435Z,100738.02
2017-10-15T02:14:24.917Z,100735.44
2017-10-15T02:16:52.395Z,100745.27
2017-10-15T02:19:19.852Z,100747.81
2017-10-15T02:21:47.432Z,100741.85
2017-10-15T02:24:14.900Z,100744.81
2017-10-15T02:26:42.534Z,100746.55
2017-10-15T02:29:10.018Z,100747.81
2017-10-15T02:31:37.478Z,100748.69
2017-10-15T02:34:04.950Z,100747.81
2017-10-15T02:36:32.453Z,100746.52
2017-10-15T02:38:59.929Z,100741.42
2017-10-15T02:41:27.385Z,100741.80
2017-10-15T02:43:54.863Z,100736.70
2017-10-15T02:46:22.356Z,100740.53
2017-10-15T02:48:49.825Z,100738.80
2017-10-15T02:51:17.311Z,100746.47
2017-10-15T02:53:44.767Z,100745.20
2017-10-15T02:56:12.224Z,100743.92
2017-10-15T02:58:39.714Z,100742.62
2017-10-15T03:01:07.174Z,100735.36
2017-10-15T03:03:34.654Z,100734.94
2017-10-15T03:06:02.149Z,100740.47
2017-10-15T03:08:29.606Z,100740.45
2017-10-15T03:10:57.091Z,100733.20
2017-10-15T03:13:24.596Z,100740.87
2017-10-15T03:15:52.071Z,100740.47
2017-10-15T03:18:19.556Z,100742.14
2017-10-15T03:20:47.084Z,100741.75
2017-10-15T03:23:14.551Z,100745.56
2017-10-15T03:25:42.013Z,100754.54
2017-10-15T03:28:09.503Z,100759.24
2017-10-15T03:30:36.981Z,100758.37
2017-10-15T03:33:04.450Z,100764.38
2017-10-15T03:35:31.935Z,100766.52
2017-10-15T03:37:59.417Z,100759.22
2017-10-15T03:40:26.920Z,100757.09
2017-10-15T03:42:54.431Z,100754.48
2017-10-15T03:45:21.903Z,100757.88
2017-10-15T03:47:49.365Z,100752.73
2017-10-15T03:50:16.855Z,100751.49
2017-10-15T03:52:44.323Z,100746.78
2017-10-15T03:55:11.784Z,100747.64
2017-10-15T03:57:39.261Z,100748.91
2017-10-15T04:00:06.725Z,100756.61
2017-10-15T04:02:34.201Z,100748.94
2017-10-15T04:05:01.698Z,100749.37
2017-10-15T04:07:29.174Z,100748.97
2017-10-15T04:09:56.659Z,100745.14
2017-10-15T04:12:24.128Z,100739.59
2017-10-15T04:14:51.596Z,100737.88
2017-10-15T04:17:19.072Z,100740.83
2017-10-15T04:19:46.593Z,100736.95
2017-10-15T04:22:14.081Z,100729.67
2017-10-15T04:24:41.539Z,100733.53
2017-10-15T04:27:09.032Z,100729.69
2017-10-15T04:29:36.504Z,100728.39
2017-10-15T04:32:03.981Z,100727.09
2017-10-15T04:34:31.505Z,100725.40
2017-10-15T04:36:58.969Z,100734.75
2017-10-15T04:39:26.426Z,100727.05
2017-10-15T04:41:53.908Z,100730.00
2017-10-15T04:44:21.416Z,100728.30
2017-10-15T04:46:49.181Z,100724.87
2017-10-15T04:49:16.660Z,100728.31
2017-10-15T04:51:44.121Z,100737.33
2017-10-15T04:54:11.592Z,100739.90
2017-10-15T04:56:39.133Z,100742.02
2017-10-15T04:59:06.591Z,100748.83
2017-10-15T05:01:34.067Z,100745.84
2017-10-15T05:04:01.561Z,100744.94
2017-10-15T05:06:29.032Z,100748.33
2017-10-15T05:08:56.496Z,100756.00
2017-10-15T05:11:24.033Z,100759.41
2017-10-15T05:13:51.498Z,100761.93
2017-10-15T05:16:18.976Z,100755.53
2017-10-15T05:18:46.479Z,100761.08
2017-10-15T05:21:13.950Z,100770.47
2017-10-15T05:23:41.420Z,100761.54
2017-10-15T05:26:08.941Z,100759.81
2017-10-15T05:28:36.430Z,100758.55
2017-10-15T05:31:03.897Z,100767.09
2017-10-15T05:33:31.415Z,100770.09
2017-10-15T05:35:58.906Z,100779.53
2017-10-15T05:38:26.371Z,100777.88
2017-10-15T05:40:53.845Z,100782.63
2017-10-15T05:43:21.303Z,100781.42
2017-10-15T05:45:48.769Z,100781.87
2017-10-15T05:48:16.257Z,100786.59
2017-10-15T05:50:43.818Z,100784.89
2017-10-15T05:53:11.457Z,100789.19
2017-10-15T05:55:38.945Z,100794.75
2017-10-15T05:58:06.404Z,100798.17
2017-10-15T06:00:33.881Z,100798.17
2017-10-15T06:03:01.394Z,100795.19
2017-10-15T06:05:28.888Z,100789.63
2017-10-15T06:07:56.376Z,100793.06
2017-10-15T06:10:23.861Z,100797.36
2017-10-15T06:12:51.328Z,100805.91
2017-10-15T06:15:18.817Z,100796.95
2017-10-15T06:17:46.313Z,100799.93
2017-10-15T06:20:13.792Z,100796.13
2017-10-15T06:22:41.269Z,100795.25
2017-10-15T06:25:08.762Z,100783.27
2017-10-15T06:27:36.236Z,100787.98
2017-10-15T06:30:03.733Z,100788.44
2017-10-15T06:32:31.226Z,100784.58
2017-10-15T06:34:58.693Z,100782.00
2017-10-15T06:37:26.181Z,100782.82
2017-10-15T06:39:53.675Z,100781.53
2017-10-15T06:42:21.138Z,100779.34
2017-10-15T06:44:48.610Z,100782.30
2017-10-15T06:47:16.089Z,100778.41
2017-10-15T06:49:43.560Z,100782.20
2017-10-15T06:52:11.028Z,100780.02
2017-10-15T06:57:12.199Z,100779.03
2017-10-15T06:59:39.705Z,100784.98
2017-10-15T07:02:07.182Z,100790.48
2017-10-15T07:04:34.645Z,100793.03
2017-10-15T07:07:02.135Z,100791.63
2017-10-15T07:09:29.633Z,100797.09
2017-10-15T07:11:57.168Z,100795.77
2017-10-15T07:14:24.681Z,100801.27
2017-10-15T07:16:52.146Z,100801.23
2017-10-15T07:19:19.631Z,100801.22
2017-10-15T07:21:47.116Z,100809.23
2017-10-15T07:24:14.606Z,100804.86
2017-10-15T07:26:42.099Z,100809.50
2017-10-15T07:29:09.593Z,100806.41
2017-10-15T07:31:37.067Z,100810.98
2017-10-15T07:34:04.553Z,100808.73
2017-10-15T07:36:32.034Z,100808.20
2017-10-15T07:38:59.513Z,100812.80
2017-10-15T07:41:26.988Z,100816.59
2017-10-15T07:43:54.488Z,100812.19
2017-10-15T07:46:21.973Z,100811.29
2017-10-15T07:48:49.466Z,100812.50
2017-10-15T07:51:16.995Z,100815.32
2017-10-15T07:53:44.459Z,100816.92
2017-10-15T07:56:11.954Z,100815.47
2017-10-15T07:58:39.425Z,100807.98
2017-10-15T08:01:06.888Z,100819.09
2017-10-15T08:03:35.134Z,100805.53
2017-10-15T08:06:02.642Z,100808.73
2017-10-15T08:08:30.154Z,100812.41
2017-10-15T08:10:57.628Z,100813.55
2017-10-15T08:13:25.117Z,100809.09
2017-10-15T08:15:52.581Z,100813.47
2017-10-15T08:18:20.068Z,100810.30
2017-10-15T08:20:47.584Z,100811.84
2017-10-15T08:23:15.064Z,100808.61
2017-10-15T08:25:42.535Z,100804.57
2017-10-15T08:28:10.039Z,100802.72
2017-10-15T08:30:37.521Z,100795.14
2017-10-15T08:33:04.997Z,100797.10
2017-10-15T08:35:32.488Z,100792.86
2017-10-15T08:37:59.991Z,100795.62
2017-10-15T08:40:27.571Z,100795.49
2017-10-15T08:42:55.047Z,100796.87
2017-10-15T08:45:22.512Z,100796.53
2017-10-15T08:47:50.023Z,100798.41
2017-10-15T08:50:17.527Z,100792.73
2017-10-15T08:52:45.002Z,100800.33
2017-10-15T08:55:12.494Z,100793.05
2017-10-15T08:57:39.999Z,100793.98
2017-10-15T09:00:07.457Z,100790.63
2017-10-15T09:02:34.946Z,100796.83
2017-10-15T09:05:02.424Z,100805.00
2017-10-15T09:07:29.933Z,100800.88
2017-10-15T09:09:57.402Z,100791.98
2017-10-15T09:12:24.940Z,100792.63
2017-10-15T09:14:52.440Z,100791.41
2017-10-15T09:17:20.382Z,100796.19
2017-10-15T09:19:47.879Z,100790.82
2017-10-15T09:22:15.372Z,100787.18
2017-10-15T09:24:42.913Z,100793.00
2017-10-15T09:27:10.392Z,100792.62
2017-10-15T09:29:37.890Z,100798.83
2017-10-15T09:32:05.735Z,100791.63
2017-10-15T09:34:33.276Z,100795.09
2017-10-15T09:37:01.226Z,100798.11
2017-10-15T09:39:28.721Z,100803.42
2017-10-15T09:41:56.222Z,100799.66
2017-10-15T09:44:23.716Z,100801.84
2017-10-15T09:46:51.179Z,100805.55
2017-10-15T09:49:18.668Z,100804.27
2017-10-15T09:51:46.175Z,100804.02
2017-10-15T09:54:13.658Z,100803.86
2017-10-15T09:56:41.197Z,100806.92
2017-10-15T09:59:08.664Z,100803.30
2017-10-15T10:01:36.146Z,100800.05
2017-10-15T10:04:03.644Z,100801.97
2017-10-15T10:06:31.105Z,100796.75
2017-10-15T10:08:58.664Z,100793.80
2017-10-15T10:11:26.139Z,100787.80
2017-10-15T10:13:53.599Z,100791.22
2017-10-15T10:16:21.076Z,100790.20
2017-10-15T10:18:49.047Z,100785.96
2017-10-15T10:21:16.510Z,100781.42
2017-10-15T10:23:43.977Z,100781.34
2017-10-15T10:26:11.491Z,100782.13
2017-10-15T10:28:38.986Z,100777.28
2017-10-15T10:31:06.457Z,100781.67
2017-10-15T10:33:33.989Z,100774.98
2017-10-15T10:36:01.444Z,100778.05
2017-10-15T10:38:28.978Z,100776.16
2017-10-15T10:40:56.613Z,100770.70
2017-10-15T10:43:24.089Z,100772.13
2017-10-15T10:45:51.575Z,100768.47
2017-10-15T10:48:19.210Z,100766.58
2017-10-15T10:50:46.704Z,100762.72
2017-10-15T10:53:14.164Z,100764.41
2017-10-15T10:55:41.636Z,100759.88
2017-10-15T10:58:09.157Z,100758.48
2017-10-15T11:00:36.625Z,100751.81
2017-10-15T11:03:04.172Z,100753.54
2017-10-15T11:05:31.697Z,100747.91
2017-10-15T11:07:59.258Z,100744.86
2017-10-15T11:10:26.785Z,100744.85
2017-10-15T11:12:54.264Z,100736.71
2017-10-15T11:15:21.744Z,100736.86
2017-10-15T11:17:49.233Z,100734.78
2017-10-15T11:20:16.790Z,100733.36
2017-10-15T11:22:44.273Z,100736.70
2017-10-15T11:25:12.666Z,100732.61
2017-10-15T11:27:40.125Z,100737.82
2017-10-15T11:30:07.637Z,100726.58
2017-10-15T11:32:35.131Z,100729.23
2017-10-15T11:35:02.659Z,100724.91
2017-10-15T11:37:30.152Z,100724.58
2017-10-15T11:39:57.635Z,100725.88
2017-10-15T11:42:25.119Z,100723.34
2017-10-15T11:44:52.588Z,100723.87
2017-10-15T11:47:20.057Z,100719.45
2017-10-15T11:49:47.537Z,100719.91
2017-10-15T11:52:15.000Z,100720.19
2017-10-15T11:54:42.494Z,100709.09
2017-10-15T11:57:09.952Z,100705.47
2017-10-15T11:59:37.785Z,100700.12
2017-10-15T12:02:05.262Z,100702.86
2017-10-15T12:04:32.801Z,100704.32
2017-10-15T12:07:00.282Z,100697.24
2017-10-15T12:09:27.785Z,100701.07
2017-10-15T12:11:55.245Z,100703.11
2017-10-15T12:14:22.724Z,100699.38
2017-10-15T12:16:50.211Z,100692.58
2017-10-15T12:19:17.688Z,100693.07
2017-10-15T12:21:45.152Z,100692.84
2017-10-15T12:24:12.670Z,100695.30
2017-10-15T12:26:40.147Z,100692.50
2017-10-15T12:29:07.626Z,100687.97
2017-10-15T12:31:35.103Z,100685.78
2017-10-15T12:34:02.567Z,100684.81
2017-10-15T12:36:30.042Z,100683.17
2017-10-15T12:38:57.558Z,100671.85
2017-10-15T12:41:25.098Z,100668.08
2017-10-15T12:43:52.568Z,100667.36
2017-10-15T12:46:20.046Z,100660.03
2017-10-15T12:48:47.522Z,100667.23
2017-10-15T12:51:15.024Z,100662.28
2017-10-15T12:53:42.507Z,100661.15
2017-10-15T12:56:09.988Z,100662.81
2017-10-15T12:58:37.669Z,100654.37
2017-10-15T13:01:05.163Z,100660.98
2017-10-15T13:03:32.623Z,100656.04
2017-10-15T13:06:00.073Z,100652.70
2017-10-15T13:08:27.570Z,100656.20
2017-10-15T13:10:55.044Z,100647.24
2017-10-15T13:13:22.554Z,100640.66
2017-10-15T13:15:50.062Z,100642.99
2017-10-15T13:18:17.516Z,100636.55
2017-10-15T13:20:44.989Z,100638.89
2017-10-15T13:23:12.493Z,100632.23
2017-10-15T13:25:39.948Z,100628.09
2017-10-15T13:28:07.444Z,100625.38
2017-10-15T13:30:34.930Z,100619.92
2017-10-15T13:33:02.380Z,100619.53
2017-10-15T13:35:29.852Z,100618.82
2017-10-15T13:37:58.373Z,100618.74
2017-10-15T13:40:25.834Z,100614.95
2017-10-15T13:42:53.302Z,100614.23
2017-10-15T13:45:20.776Z,100613.64
2017-10-15T13:47:48.275Z,100617.36
2017-10-15T13:50:15.753Z,100610.25
2017-10-15T13:52:43.235Z,100614.34
2017-10-15T13:55:10.692Z,100611.05
2017-10-15T13:57:38.241Z,100601.14
2017-10-15T14:00:05.737Z,100601.50
2017-10-15T14:02:33.236Z,100597.59
2017-10-15T14:05:00.740Z,100594.52
2017-10-15T14:07:28.224Z,100600.11
2017-10-15T14:09:55.694Z,100595.66
2017-10-15T14:12:23.168Z,100594.77
2017-10-15T14:14:50.691Z,100587.95
2017-10-15T14:17:18.167Z,100581.81
2017-10-15T14:19:45.621Z,100587.17
2017-10-15T14:22:13.167Z,100587.77
2017-10-15T14:24:40.663Z,100577.70
2017-10-15T14:27:08.142Z,100585.48
2017-10-15T14:29:35.658Z,100581.94
2017-10-15T14:32:03.182Z,100583.95
2017-10-15T14:34:30.648Z,100574.53
2017-10-15T14:36:58.153Z,100571.91
2017-10-15T14:39:25.640Z,100572.36
2017-10-15T14:41:53.172Z,100568.62
2017-10-15T14:44:20.709Z,100565.90
2017-10-15T14:46:48.321Z,100567.83
2017-10-15T14:49:15.805Z,100572.99
2017-10-15T14:51:43.307Z,100560.39
2017-10-15T14:54:10.787Z,100562.34
2017-10-15T14:56:38.276Z,100567.44
2017-10-15T14:59:06.176Z,100561.63
2017-10-15T15:01:33.648Z,100562.80
2017-10-15T15:04:01.189Z,100563.92
2017-10-15T15:06:28.710Z,100561.08
2017-10-15T15:08:56.300Z,100561.22
2017-10-15T15:11:23.799Z,100556.63
2017-10-15T15:13:51.297Z,100554.02
2017-10-15T15:16:18.807Z,100548.80
2017-10-15T15:18:46.288Z,100547.06
2017-10-15T15:21:13.778Z,100553.18
2017-10-15T15:23:41.278Z,100549.06
2017-10-15T15:26:08.755Z,100551.12
2017-10-15T15:28:36.243Z,100553.32
2017-10-15T15:31:03.727Z,100549.36
2017-10-15T15:33:31.198Z,100546.77
2017-10-15T15:35:58.710Z,100553.95
2017-10-15T15:38:26.193Z,100551.96
2017-10-15T15:40:53.645Z,100547.10
2017-10-15T15:43:21.171Z,100547.23
2017-10-15T15:45:48.653Z,100547.47
2017-10-15T15:48:16.140Z,100543.21
2017-10-15T15:50:43.638Z,100545.55
2017-10-15T15:53:11.116Z,100541.25
2017-10-15T15:55:38.586Z,100542.38
2017-10-15T15:58:06.067Z,100546.25
2017-10-15T16:00:33.692Z,100547.20
2017-10-15T16:03:01.153Z,100542.09
2017-10-15T16:05:28.658Z,100551.23
2017-10-15T16:07:56.157Z,100547.58
2017-10-15T16:10:23.644Z,100554.14
2017-10-15T16:12:51.153Z,100554.47
2017-10-15T16:15:18.610Z,100554.83
2017-10-15T16:17:46.144Z,100557.53
2017-10-15T16:20:13.623Z,100549.88
2017-10-15T16:22:41.097Z,100552.84
2017-10-15T16:25:08.555Z,100558.39
2017-10-15T16:27:36.040Z,100560.96
2017-10-15T16:30:03.502Z,100561.27
2017-10-15T16:32:30.969Z,100558.42
2017-10-15T16:34:58.469Z,100559.77
2017-10-15T16:37:25.997Z,100564.16
2017-10-15T16:39:53.474Z,100566.80
2017-10-15T16:42:20.984Z,100568.53
2017-10-15T16:44:48.452Z,100566.83
2017-10-15T16:47:15.932Z,100564.15
2017-10-15T16:49:43.418Z,100568.84
2017-10-15T16:52:10.910Z,100578.63
2017-10-15T16:54:40.203Z,100574.70
2017-10-15T16:57:07.718Z,100579.66
2017-10-15T16:59:35.220Z,100578.61
2017-10-15T17:02:02.709Z,100583.98
2017-10-15T17:04:30.196Z,100577.33
2017-10-15T17:06:57.735Z,100586.27
2017-10-15T17:09:25.242Z,100587.42
2017-10-15T17:11:52.744Z,100586.80
2017-10-15T17:14:20.229Z,100587.42
2017-10-15T17:16:47.776Z,100595.06
2017-10-15T17:19:15.282Z,100594.78
2017-10-15T17:21:42.771Z,100591.87
2017-10-15T17:24:10.230Z,100590.80
2017-10-15T17:26:37.870Z,100591.47
2017-10-15T17:29:05.343Z,100592.11
2017-10-15T17:31:32.822Z,100589.25
2017-10-15T17:34:00.404Z,100583.78
2017-10-15T17:36:27.897Z,100583.84
2017-10-15T17:38:55.383Z,100581.79
2017-10-15T17:41:22.906Z,100579.05
2017-10-15T17:43:50.408Z,100576.23
2017-10-15T17:46:17.866Z,100578.17
2017-10-15T17:48:45.367Z,100573.53
2017-10-15T17:51:12.853Z,100570.66
2017-10-15T17:53:40.346Z,100583.73
2017-10-15T17:56:07.862Z,100576.03
2017-10-15T17:58:35.364Z,100574.82
2017-10-15T18:01:02.871Z,100573.59
2017-10-15T18:03:30.657Z,100575.36
2017-10-15T18:05:58.124Z,100565.61
2017-10-15T18:08:25.629Z,100572.56
2017-10-15T18:10:53.118Z,100573.99
2017-10-15T18:13:20.637Z,100571.95
2017-10-15T18:15:48.121Z,100575.95
2017-10-15T18:18:15.620Z,100569.52
2017-10-15T18:20:43.103Z,100576.25
2017-10-15T18:23:10.610Z,100572.22
2017-10-15T18:25:38.127Z,100579.77
2017-10-15T18:28:05.615Z,100570.84
2017-10-15T18:30:33.104Z,100573.92
2017-10-15T18:33:00.587Z,100570.55
2017-10-15T18:35:28.082Z,100574.48
2017-10-15T18:37:55.562Z,100569.00
2017-10-15T18:40:23.080Z,100570.79
2017-10-15T18:42:50.570Z,100563.97
2017-10-15T18:45:18.085Z,100573.14
2017-10-15T18:47:45.749Z,100567.64
2017-10-15T18:50:13.264Z,100565.73
2017-10-15T18:52:40.768Z,100562.86
2017-10-15T18:55:08.297Z,100567.68
2017-10-15T18:57:35.784Z,100568.16
2017-10-15T19:00:03.312Z,100561.38
2017-10-15T19:02:30.858Z,100565.78
2017-10-15T19:04:58.366Z,100558.98
2017-10-15T19:07:25.858Z,100564.67
2017-10-15T19:09:53.443Z,100561.39
2017-10-15T19:12:20.996Z,100565.80
2017-10-15T19:14:48.474Z,100563.27
2017-10-15T19:17:16.004Z,100565.85
2017-10-15T19:19:43.495Z,100568.56
2017-10-15T19:22:10.965Z,100574.26
2017-10-15T19:24:38.496Z,100571.30
2017-10-15T19:27:05.994Z,100571.25
2017-10-15T19:29:33.494Z,100581.98
2017-10-15T19:32:01.042Z,100575.98
2017-10-15T19:34:28.561Z,100575.87
2017-10-15T19:36:56.036Z,100576.65
2017-10-15T19:39:23.561Z,100580.89
2017-10-15T19:41:51.071Z,100575.82
2017-10-15T19:44:18.582Z,100577.59
2017-10-15T19:46:46.105Z,100578.80
2017-10-15T19:49:13.635Z,100574.44
2017-10-15T19:51:41.145Z,100581.03
2017-10-15T19:54:08.802Z,100575.50
2017-10-15T19:56:36.469Z,100571.30
2017-10-15T19:59:03.941Z,100578.23
2017-10-15T20:01:31.442Z,100574.27
2017-10-15T20:03:59.164Z,100571.20
2017-10-15T20:06:26.681Z,100577.36
2017-10-15T20:08:54.970Z,100572.73
2017-10-15T20:11:22.449Z,100571.55
2017-10-15T20:13:49.944Z,100575.09
2017-10-15T20:16:17.452Z,100576.98
2017-10-15T20:18:45.011Z,100570.63
2017-10-15T20:21:12.544Z,100571.16
2017-10-15T20:23:40.071Z,100575.55
2017-10-15T20:26:07.586Z,100579.50
2017-10-15T20:28:35.106Z,100577.01
2017-10-15T20:31:02.595Z,100575.41
2017-10-15T20:33:30.089Z,100571.59
2017-10-15T20:35:57.561Z,100576.28
2017-10-15T20:38:25.062Z,100581.38
2017-10-15T20:40:52.538Z,100572.37
2017-10-15T20:43:20.025Z,100575.50
2017-10-15T20:45:47.613Z,100570.39
2017-10-15T20:48:15.089Z,100570.86
2017-10-15T20:50:42.552Z,100570.01
2017-10-15T20:53:10.057Z,100568.76
2017-10-15T20:55:37.532Z,100567.98
2017-10-15T20:58:05.039Z,100572.73
2017-10-15T21:00:32.545Z,100575.81
2017-10-15T21:03:00.008Z,100576.24
2017-10-15T21:05:27.482Z,100572.81
2017-10-15T21:07:54.955Z,100575.50
2017-10-15T21:10:23.433Z,100575.93
2017-10-15T21:12:50.910Z,100578.54
2017-10-15T21:15:18.426Z,100579.78
2017-10-15T21:17:45.877Z,100576.43
2017-10-15T21:20:13.358Z,100573.46
2017-10-15T21:22:40.895Z,100575.61
2017-10-15T21:25:08.362Z,100571.75
2017-10-15T21:27:35.850Z,100581.14
2017-10-15T21:30:03.333Z,100583.29
2017-10-15T21:32:30.823Z,100573.89
2017-10-15T21:34:58.329Z,100581.69
2017-10-15T21:37:25.849Z,100582.97
2017-10-15T21:39:53.371Z,100584.33
2017-10-15T21:42:20.873Z,100582.61
2017-10-15T21:44:48.480Z,100585.22
2017-10-15T21:47:15.955Z,100583.97
2017-10-15T21:49:43.461Z,100581.82
2017-10-15T21:52:10.977Z,100585.25
2017-10-15T21:54:38.463Z,100585.75
2017-10-15T21:57:05.924Z,100580.17
2017-10-15T21:59:33.435Z,100579.77
2017-10-15T22:02:00.904Z,100576.45
2017-10-15T22:04:28.408Z,100579.48
2017-10-15T22:06:55.904Z,100573.51
2017-10-15T22:09:23.390Z,100575.13
2017-10-15T22:11:51.591Z,100574.30
2017-10-15T22:14:19.085Z,100570.51
2017-10-15T22:16:46.608Z,100575.25
2017-10-15T22:19:14.094Z,100573.05
2017-10-15T22:21:47.103Z,100569.62
2017-10-15T22:24:14.586Z,100571.00
2017-10-15T22:26:42.050Z,100567.62
2017-10-15T22:31:44.194Z,100568.12
2017-10-15T22:36:45.401Z,100573.73
2017-10-15T22:39:12.914Z,100574.17
2017-10-15T22:41:40.394Z,100578.03
2017-10-15T22:44:07.876Z,100568.61
2017-10-15T22:46:35.379Z,100572.89
2017-10-15T22:49:02.851Z,100567.77
2017-10-15T22:51:30.309Z,100565.23
2017-10-15T22:53:57.817Z,100565.31
2017-10-15T22:56:25.343Z,100563.68
2017-10-15T22:58:52.833Z,100559.42
2017-10-15T23:01:20.353Z,100560.36
2017-10-15T23:03:47.856Z,100549.67
2017-10-15T23:06:15.320Z,100552.27
2017-10-15T23:08:42.807Z,100549.23
2017-10-15T23:11:10.280Z,100550.11
2017-10-15T23:13:37.743Z,100558.23
2017-10-15T23:16:05.265Z,100559.52
2017-10-15T23:18:32.766Z,100562.97
2017-10-15T23:21:00.319Z,100559.97
2017-10-15T23:23:27.823Z,100563.00
2017-10-15T23:25:55.292Z,100562.54
2017-10-15T23:28:22.766Z,100562.55
2017-10-15T23:30:50.274Z,100568.11
2017-10-15T23:33:18.237Z,100568.11
2017-10-15T23:35:45.705Z,100569.44
2017-10-15T23:38:13.189Z,100561.36
2017-10-15T23:40:41.187Z,100567.80
2017-10-15T23:43:08.681Z,100566.94
2017-10-15T23:45:36.189Z,100568.23
2017-10-15T23:48:04.031Z,100560.52
2017-10-15T23:50:31.567Z,100560.09
2017-10-15T23:52:59.044Z,100554.08
2017-10-15T23:55:26.498Z,100562.63
2017-10-15T23:57:53.962Z,100564.76
